createdAt,value
2023-04-19T00:00:08.410Z,10.84
2023-04-19T00:02:38.137Z,10.69
2023-04-19T00:05:09.328Z,10.68
2023-04-19T00:07:37.143Z,10.58
2023-04-19T00:10:05.925Z,10.61
2023-04-19T00:12:33.671Z,10.64
2023-04-19T00:15:01.585Z,10.61
2023-04-19T00:17:29.707Z,10.58
2023-04-19T00:19:58.029Z,10.74
2023-04-19T00:22:27.286Z,10.79
2023-04-19T00:24:55.212Z,10.65
2023-04-19T00:27:23.493Z,10.64
2023-04-19T00:29:51.334Z,10.61
2023-04-19T00:32:19.034Z,10.65
2023-04-19T00:34:47.209Z,10.75
2023-04-19T00:37:14.999Z,10.59
2023-04-19T00:39:44.232Z,10.76
2023-04-19T00:42:12.118Z,10.68
2023-04-19T00:44:40.311Z,10.60
2023-04-19T00:47:08.179Z,10.50
2023-04-19T00:49:35.964Z,10.60
2023-04-19T00:52:04.140Z,10.48
2023-04-19T00:54:32.479Z,10.47
2023-04-19T00:57:01.557Z,10.55
2023-04-19T00:59:30.229Z,10.46
2023-04-19T01:01:58.504Z,10.49
2023-04-19T01:04:26.837Z,10.46
2023-04-19T01:06:54.964Z,10.42
2023-04-19T01:09:22.996Z,10.59
2023-04-19T01:11:51.788Z,10.58
2023-04-19T01:14:20.924Z,10.56
2023-04-19T01:16:49.210Z,10.60
2023-04-19T01:19:17.047Z,10.58
2023-04-19T01:21:46.478Z,10.45
2023-04-19T01:24:16.161Z,10.53
2023-04-19T01:26:43.977Z,10.52
2023-04-19T01:29:12.076Z,10.52
2023-04-19T01:31:39.854Z,10.57
2023-04-19T01:34:07.698Z,10.47
2023-04-19T01:36:35.513Z,10.42
2023-04-19T01:39:03.564Z,10.39
2023-04-19T01:41:32.805Z,10.46
2023-04-19T01:44:01.990Z,10.38
2023-04-19T01:46:30.222Z,10.34
2023-04-19T01:48:58.424Z,10.46
2023-04-19T01:51:26.870Z,10.45
2023-04-19T01:53:55.521Z,10.32
2023-04-19T01:56:24.881Z,10.35
2023-04-19T01:58:54.619Z,10.33
2023-04-19T02:01:22.792Z,10.33
2023-04-19T02:03:52.960Z,10.29
2023-04-19T02:06:22.362Z,10.32
2023-04-19T02:08:52.154Z,10.36
2023-04-19T02:11:20.747Z,10.27
2023-04-19T02:13:48.901Z,10.37
2023-04-19T02:16:18.331Z,10.26
2023-04-19T02:18:46.731Z,10.57
2023-04-19T02:21:15.240Z,10.35
2023-04-19T02:23:43.498Z,10.37
2023-04-19T02:26:12.983Z,10.33
2023-04-19T02:28:44.192Z,10.36
2023-04-19T02:31:13.841Z,10.27
2023-04-19T02:33:43.099Z,10.30
2023-04-19T02:36:12.123Z,10.31
2023-04-19T02:38:39.866Z,10.26
2023-04-19T02:41:07.660Z,10.19
2023-04-19T02:43:35.330Z,10.23
2023-04-19T02:46:03.202Z,10.23
2023-04-19T02:48:31.357Z,10.23
2023-04-19T02:51:00.835Z,10.23
2023-04-19T02:53:28.957Z,10.17
2023-04-19T02:55:57.393Z,10.20
2023-04-19T02:58:26.441Z,10.25
2023-04-19T03:01:06.946Z,10.37
2023-04-19T03:03:34.958Z,10.29
2023-04-19T03:06:04.742Z,10.29
2023-04-19T03:08:34.018Z,10.29
2023-04-19T03:11:02.022Z,10.34
2023-04-19T03:13:32.272Z,10.36
2023-04-19T03:16:00.920Z,10.33
2023-04-19T03:18:31.618Z,10.24
2023-04-19T03:21:01.605Z,10.25
2023-04-19T03:23:36.846Z,10.30
2023-04-19T03:26:05.302Z,10.16
2023-04-19T03:28:41.258Z,10.19
2023-04-19T03:31:11.737Z,10.26
2023-04-19T03:33:41.063Z,10.18
2023-04-19T03:36:10.350Z,10.15
2023-04-19T03:38:41.317Z,10.10
2023-04-19T03:41:20.380Z,10.17
2023-04-19T03:43:52.180Z,10.21
2023-04-19T03:46:20.412Z,10.09
2023-04-19T03:48:49.207Z,10.01
2023-04-19T03:51:17.111Z,10.01
2023-04-19T03:53:46.941Z,10.03
2023-04-19T03:56:18.727Z,9.96
2023-04-19T03:58:47.460Z,9.97
2023-04-19T04:01:19.669Z,9.88
2023-04-19T04:03:47.774Z,9.83
2023-04-19T04:06:16.594Z,9.92
2023-04-19T04:08:44.650Z,10.10
2023-04-19T04:11:14.060Z,9.98
2023-04-19T04:13:43.194Z,10.01
2023-04-19T04:16:19.151Z,10.06
2023-04-19T04:18:47.668Z,9.97
2023-04-19T04:21:16.780Z,9.83
2023-04-19T04:23:50.099Z,9.97
2023-04-19T04:26:34.040Z,10.05
2023-04-19T04:29:19.007Z,9.91
2023-04-19T04:31:47.655Z,9.88
2023-04-19T04:34:18.884Z,9.99
2023-04-19T04:36:53.490Z,9.87
2023-04-19T04:39:24.303Z,9.95
2023-04-19T04:41:54.016Z,9.91
2023-04-19T04:44:22.493Z,10.04
2023-04-19T04:46:50.429Z,9.95
2023-04-19T04:49:24.397Z,9.94
2023-04-19T04:51:52.345Z,9.91
2023-04-19T04:54:21.777Z,9.93
2023-04-19T04:56:50.292Z,9.99
2023-04-19T04:59:19.562Z,10.03
2023-04-19T05:01:50.557Z,10.09
2023-04-19T05:04:19.081Z,10.05
2023-04-19T05:06:47.041Z,10.06
2023-04-19T05:09:21.784Z,10.02
2023-04-19T05:11:49.890Z,10.04
2023-04-19T05:14:19.297Z,10.06
2023-04-19T05:16:47.274Z,10.10
2023-04-19T05:19:15.285Z,10.22
2023-04-19T05:21:49.485Z,10.27
2023-04-19T05:24:18.729Z,10.37
2023-04-19T05:26:47.581Z,10.27
2023-04-19T05:29:16.055Z,10.32
2023-04-19T05:31:51.600Z,10.45
2023-04-19T05:34:24.339Z,10.36
2023-04-19T05:36:53.843Z,10.37
2023-04-19T05:39:22.008Z,10.43
2023-04-19T05:41:50.116Z,10.56
2023-04-19T05:44:18.805Z,10.66
2023-04-19T05:46:47.535Z,10.69
2023-04-19T05:49:22.569Z,10.69
2023-04-19T05:52:06.593Z,10.92
2023-04-19T05:54:45.068Z,10.85
2023-04-19T05:57:13.247Z,10.85
2023-04-19T05:59:41.431Z,10.75
2023-04-19T06:02:10.846Z,10.85
2023-04-19T06:04:40.349Z,11.02
2023-04-19T06:07:17.783Z,10.78
2023-04-19T06:09:56.285Z,10.70
2023-04-19T06:12:24.248Z,10.69
2023-04-19T06:14:53.930Z,10.66
2023-04-19T06:17:25.725Z,10.67
2023-04-19T06:19:57.451Z,10.69
2023-04-19T06:22:26.138Z,10.76
2023-04-19T06:24:53.853Z,10.88
2023-04-19T06:27:21.762Z,11.00
2023-04-19T06:29:51.241Z,11.07
2023-04-19T06:32:19.782Z,11.17
2023-04-19T06:34:47.831Z,11.16
2023-04-19T06:37:17.180Z,11.18
2023-04-19T06:39:44.829Z,11.14
2023-04-19T06:42:12.833Z,11.19
2023-04-19T06:44:40.947Z,11.17
2023-04-19T06:47:08.756Z,11.33
2023-04-19T06:49:36.482Z,11.31
2023-04-19T06:52:04.254Z,11.36
2023-04-19T06:54:33.469Z,11.16
2023-04-19T06:57:02.384Z,11.45
2023-04-19T06:59:32.380Z,11.47
2023-04-19T07:02:00.239Z,11.64
2023-04-19T07:04:28.370Z,11.89
2023-04-19T07:06:56.719Z,11.78
2023-04-19T07:09:24.416Z,11.87
2023-04-19T07:11:53.861Z,11.73
2023-04-19T07:14:22.005Z,11.84
2023-04-19T07:16:50.971Z,12.16
2023-04-19T07:19:20.592Z,12.68
2023-04-19T07:21:48.817Z,13.22
2023-04-19T07:24:17.405Z,13.52
2023-04-19T07:26:45.589Z,13.59
2023-04-19T07:29:15.046Z,13.43
2023-04-19T07:31:43.335Z,12.87
2023-04-19T07:34:11.009Z,12.48
2023-04-19T07:36:39.070Z,12.28
2023-04-19T07:39:06.858Z,12.06
2023-04-19T07:41:35.973Z,12.04
2023-04-19T07:44:04.008Z,12.17
2023-04-19T07:46:33.148Z,11.97
2023-04-19T07:49:00.995Z,12.17
2023-04-19T07:51:29.311Z,11.93
2023-04-19T07:53:56.970Z,12.14
2023-04-19T07:56:26.396Z,11.95
2023-04-19T07:59:06.949Z,11.87
2023-04-19T08:01:38.309Z,11.90
2023-04-19T08:04:06.890Z,11.98
2023-04-19T08:06:34.922Z,12.04
2023-04-19T08:09:03.030Z,12.00
2023-04-19T08:11:31.230Z,11.92
2023-04-19T08:14:09.294Z,12.08
2023-04-19T08:17:19.051Z,11.98
2023-04-19T08:19:29.000Z,11.95
2023-04-19T08:21:57.495Z,11.91
2023-04-19T08:24:25.361Z,12.03
2023-04-19T08:26:54.770Z,12.01
2023-04-19T08:29:23.177Z,12.05
2023-04-19T08:31:52.843Z,12.07
2023-04-19T08:34:21.082Z,12.19
2023-04-19T08:36:55.812Z,12.28
2023-04-19T08:39:33.124Z,12.12
2023-04-19T08:42:08.667Z,12.22
2023-04-19T08:44:54.329Z,12.25
2023-04-19T08:47:34.313Z,12.25
2023-04-19T08:50:20.265Z,12.27
2023-04-19T08:52:58.811Z,12.57
2023-04-19T08:55:29.964Z,12.41
2023-04-19T08:57:58.029Z,12.45
2023-04-19T09:00:26.091Z,12.59
2023-04-19T09:02:56.427Z,12.64
2023-04-19T09:05:24.710Z,12.68
2023-04-19T09:07:52.969Z,12.86
2023-04-19T09:10:22.886Z,12.84
2023-04-19T09:13:04.385Z,12.86
2023-04-19T09:15:40.069Z,12.78
2023-04-19T09:18:10.710Z,12.76
2023-04-19T09:20:40.223Z,12.86
2023-04-19T09:23:12.395Z,12.63
2023-04-19T09:25:59.221Z,12.71
2023-04-19T09:28:29.661Z,12.76
2023-04-19T09:31:10.594Z,13.06
2023-04-19T09:33:45.637Z,12.94
2023-04-19T09:36:28.039Z,12.84
2023-04-19T09:38:56.079Z,12.81
2023-04-19T09:41:24.010Z,12.88
2023-04-19T09:46:33.611Z,12.94
2023-04-19T09:49:27.866Z,13.04
2023-04-19T09:52:10.385Z,13.23
2023-04-19T09:54:39.045Z,13.23
2023-04-19T09:57:07.198Z,13.40
2023-04-19T09:59:35.513Z,13.75
2023-04-19T10:02:06.641Z,14.01
2023-04-19T10:04:57.100Z,14.02
2023-04-19T10:07:30.543Z,13.85
2023-04-19T10:15:05.425Z,13.32
2023-04-19T10:17:33.657Z,13.33
2023-04-19T10:20:08.166Z,13.39
2023-04-19T10:22:37.689Z,13.58
2023-04-19T10:25:10.649Z,13.79
2023-04-19T10:27:38.354Z,14.04
2023-04-19T10:30:12.603Z,14.38
2023-04-19T10:32:41.852Z,14.55
2023-04-19T10:35:18.178Z,14.32
2023-04-19T10:38:04.482Z,15.04
2023-04-19T10:41:01.057Z,15.51
2023-04-19T10:43:30.200Z,15.12
2023-04-19T10:46:01.513Z,14.96
2023-04-19T10:48:38.150Z,14.78
2023-04-19T10:51:14.506Z,14.87
2023-04-19T10:53:57.938Z,14.45
2023-04-19T10:57:02.125Z,14.44
2023-04-19T10:59:34.289Z,14.45
2023-04-19T11:02:03.360Z,14.63
2023-04-19T11:05:01.066Z,14.86
2023-04-19T11:07:57.646Z,15.08
2023-04-19T11:10:31.911Z,15.45
2023-04-19T11:12:59.805Z,15.32
2023-04-19T11:15:27.671Z,15.59
2023-04-19T11:18:11.193Z,15.48
2023-04-19T11:20:43.730Z,15.79
2023-04-19T11:23:18.839Z,15.67
2023-04-19T11:25:48.471Z,15.48
2023-04-19T11:28:18.285Z,15.41
2023-04-19T11:30:46.940Z,15.61
2023-04-19T11:33:16.411Z,15.65
2023-04-19T11:35:44.682Z,15.53
2023-04-19T11:38:14.906Z,15.35
2023-04-19T11:40:44.252Z,15.56
2023-04-19T11:43:12.079Z,15.70
2023-04-19T11:45:40.481Z,15.76
2023-04-19T11:48:15.148Z,15.84
2023-04-19T11:50:44.264Z,16.34
2023-04-19T11:53:14.333Z,15.95
2023-04-19T11:55:52.449Z,15.85
2023-04-19T11:58:29.252Z,16.04
2023-04-19T12:00:58.475Z,15.95
2023-04-19T12:03:26.969Z,15.61
2023-04-19T12:05:56.583Z,15.70
2023-04-19T12:08:32.901Z,16.58
2023-04-19T12:11:03.351Z,16.71
2023-04-19T12:13:32.049Z,16.76
2023-04-19T12:16:00.773Z,17.14
2023-04-19T12:18:28.687Z,16.64
2023-04-19T12:20:58.285Z,16.29
2023-04-19T12:23:27.829Z,16.44
2023-04-19T12:25:55.693Z,16.58
2023-04-19T12:28:25.256Z,16.35
2023-04-19T12:30:53.470Z,16.24
2023-04-19T12:33:24.067Z,16.29
2023-04-19T12:35:55.290Z,16.80
2023-04-19T12:38:24.363Z,17.71
2023-04-19T12:40:52.610Z,17.68
2023-04-19T12:43:21.159Z,17.44
2023-04-19T12:45:50.568Z,17.39
2023-04-19T12:48:19.305Z,17.52
2023-04-19T12:50:47.764Z,17.36
2023-04-19T12:53:15.712Z,17.58
2023-04-19T12:55:47.443Z,17.13
2023-04-19T12:58:15.906Z,16.96
2023-04-19T13:00:43.810Z,17.15
2023-04-19T13:03:13.576Z,17.27
2023-04-19T13:05:41.715Z,17.47
2023-04-19T13:08:10.318Z,17.42
2023-04-19T13:10:38.509Z,17.45
2023-04-19T13:13:06.780Z,17.15
2023-04-19T13:15:34.981Z,17.43
2023-04-19T13:18:02.985Z,17.56
2023-04-19T13:20:32.355Z,17.58
2023-04-19T13:23:00.585Z,17.57
2023-04-19T13:25:29.474Z,17.50
2023-04-19T13:27:58.258Z,17.29
2023-04-19T13:30:28.399Z,17.27
2023-04-19T13:32:56.826Z,17.38
2023-04-19T13:35:25.271Z,17.73
2023-04-19T13:37:54.875Z,17.57
2023-04-19T13:40:22.764Z,17.86
2023-04-19T13:42:51.040Z,17.64
2023-04-19T13:45:19.000Z,17.33
2023-04-19T13:47:47.183Z,17.38
2023-04-19T13:50:15.373Z,17.26
2023-04-19T13:52:43.302Z,17.21
2023-04-19T13:55:12.930Z,17.18
2023-04-19T13:57:40.802Z,17.37
2023-04-19T14:00:09.892Z,17.42
2023-04-19T14:02:37.887Z,17.36
2023-04-19T14:05:06.538Z,17.33
2023-04-19T14:07:34.408Z,17.31
2023-04-19T14:10:02.857Z,17.42
2023-04-19T14:12:32.623Z,17.49
2023-04-19T14:15:00.702Z,17.32
2023-04-19T14:17:28.878Z,17.29
2023-04-19T14:19:57.852Z,17.23
2023-04-19T14:22:25.992Z,17.33
2023-04-19T14:24:54.287Z,17.27
2023-04-19T14:27:22.954Z,17.49
2023-04-19T14:29:52.074Z,17.55
2023-04-19T14:32:25.112Z,17.22
2023-04-19T14:34:56.372Z,17.03
2023-04-19T14:37:25.597Z,16.83
2023-04-19T14:39:54.162Z,16.84
2023-04-19T14:42:23.286Z,16.78
2023-04-19T14:44:53.538Z,16.85
2023-04-19T14:47:22.766Z,16.71
2023-04-19T14:49:51.280Z,16.70
2023-04-19T14:52:19.236Z,16.72
2023-04-19T14:54:47.223Z,16.45
2023-04-19T14:57:15.534Z,16.62
2023-04-19T14:59:43.458Z,16.56
2023-04-19T15:02:13.627Z,16.46
2023-04-19T15:04:42.365Z,16.60
2023-04-19T15:07:11.126Z,16.36
2023-04-19T15:09:40.279Z,16.32
2023-04-19T15:12:08.365Z,16.15
2023-04-19T15:14:36.932Z,16.27
2023-04-19T15:17:04.818Z,15.86
2023-04-19T15:19:34.855Z,15.79
2023-04-19T15:22:04.154Z,15.71
2023-04-19T15:24:33.591Z,15.90
2023-04-19T15:27:01.821Z,15.45
2023-04-19T15:29:29.717Z,15.41
2023-04-19T15:31:57.996Z,15.38
2023-04-19T15:34:25.905Z,15.49
2023-04-19T15:36:55.893Z,15.14
2023-04-19T15:39:23.945Z,15.13
2023-04-19T15:41:52.105Z,15.17
2023-04-19T15:44:20.125Z,15.19
2023-04-19T15:46:48.017Z,15.24
2023-04-19T15:49:16.739Z,14.89
2023-04-19T15:51:47.849Z,15.03
2023-04-19T15:54:17.317Z,14.78
2023-04-19T15:56:45.306Z,14.80
2023-04-19T15:59:13.255Z,14.65
2023-04-19T16:01:41.634Z,14.64
2023-04-19T16:04:10.230Z,14.43
2023-04-19T16:06:38.446Z,14.46
2023-04-19T16:09:08.120Z,14.42
2023-04-19T16:11:39.042Z,14.56
2023-04-19T16:14:07.219Z,14.44
2023-04-19T16:16:35.416Z,14.39
2023-04-19T16:19:03.445Z,14.34
2023-04-19T16:21:31.663Z,14.37
2023-04-19T16:24:00.720Z,14.23
2023-04-19T16:26:28.598Z,14.37
2023-04-19T16:28:59.372Z,14.67
2023-04-19T16:31:27.598Z,14.39
2023-04-19T16:33:57.848Z,14.16
2023-04-19T16:36:25.686Z,14.13
2023-04-19T16:38:53.876Z,14.07
2023-04-19T16:41:21.937Z,14.25
2023-04-19T16:43:49.940Z,14.18
2023-04-19T16:46:19.112Z,13.85
2023-04-19T16:48:46.967Z,14.18
2023-04-19T16:51:14.769Z,13.95
2023-04-19T16:53:43.485Z,13.93
2023-04-19T16:56:11.321Z,13.72
2023-04-19T16:58:38.959Z,13.85
2023-04-19T17:01:09.093Z,13.99
2023-04-19T17:03:38.882Z,13.85
2023-04-19T17:06:07.270Z,13.83
2023-04-19T17:08:35.235Z,13.76
2023-04-19T17:11:03.003Z,13.72
2023-04-19T17:13:31.218Z,13.74
2023-04-19T17:15:59.076Z,13.50
2023-04-19T17:18:28.115Z,13.69
2023-04-19T17:20:58.791Z,13.30
2023-04-19T17:23:26.860Z,13.31
2023-04-19T17:25:55.694Z,13.09
2023-04-19T17:28:23.418Z,13.06
2023-04-19T17:30:51.334Z,12.90
2023-04-19T17:33:19.125Z,12.82
2023-04-19T17:35:47.611Z,12.89
2023-04-19T17:38:16.872Z,12.77
2023-04-19T17:40:46.247Z,12.77
2023-04-19T17:43:15.145Z,12.84
2023-04-19T17:45:43.011Z,12.73
2023-04-19T17:48:10.999Z,12.56
2023-04-19T17:50:38.861Z,12.49
2023-04-19T17:53:06.692Z,12.56
2023-04-19T17:55:36.427Z,12.39
2023-04-19T17:58:04.381Z,12.43
2023-04-19T18:00:32.121Z,12.36
2023-04-19T18:03:00.761Z,12.32
2023-04-19T18:05:29.184Z,12.12
2023-04-19T18:07:57.354Z,12.03
2023-04-19T18:10:25.647Z,12.06
2023-04-19T18:12:54.948Z,11.99
2023-04-19T18:15:23.484Z,11.85
2023-04-19T18:17:51.419Z,11.63
2023-04-19T18:20:21.060Z,11.56
2023-04-19T18:22:49.805Z,11.55
2023-04-19T18:25:17.780Z,11.52
2023-04-19T18:27:46.168Z,11.50
2023-04-19T18:30:16.239Z,11.47
2023-04-19T18:32:44.432Z,11.47
2023-04-19T18:35:12.273Z,11.36
2023-04-19T18:37:40.259Z,11.15
2023-04-19T18:40:09.346Z,11.35
2023-04-19T18:42:37.062Z,11.09
2023-04-19T18:45:06.058Z,10.87
2023-04-19T18:47:35.766Z,10.82
2023-04-19T18:50:06.491Z,10.82
2023-04-19T18:52:36.264Z,10.67
2023-04-19T18:55:05.638Z,10.53
2023-04-19T18:57:35.046Z,10.45
2023-04-19T19:00:05.503Z,10.48
2023-04-19T19:02:37.141Z,10.47
2023-04-19T19:05:08.314Z,10.61
2023-04-19T19:07:38.079Z,10.42
2023-04-19T19:10:19.500Z,10.41
2023-04-19T19:12:51.278Z,10.44
2023-04-19T19:15:19.311Z,10.28
2023-04-19T19:17:50.734Z,10.37
2023-04-19T19:20:20.509Z,10.36
2023-04-19T19:22:48.866Z,10.39
2023-04-19T19:25:16.915Z,10.40
2023-04-19T19:28:03.015Z,10.45
2023-04-19T19:30:34.032Z,10.35
2023-04-19T19:33:04.815Z,10.34
2023-04-19T19:35:33.709Z,10.22
2023-04-19T19:38:01.657Z,10.18
2023-04-19T19:40:32.468Z,10.16
2023-04-19T19:43:01.781Z,10.06
2023-04-19T19:45:29.844Z,9.93
2023-04-19T19:48:00.114Z,9.78
2023-04-19T19:53:01.914Z,9.80
2023-04-19T19:55:30.186Z,9.76
2023-04-19T20:03:00.602Z,9.51
2023-04-19T20:05:30.185Z,9.40
2023-04-19T20:08:08.586Z,9.36
2023-04-19T20:10:40.957Z,9.25
2023-04-19T20:13:09.320Z,9.33
2023-04-19T20:15:38.812Z,9.28
2023-04-19T20:18:08.162Z,9.21
2023-04-19T20:20:38.362Z,9.22
2023-04-19T20:23:06.869Z,9.12
2023-04-19T20:25:34.986Z,9.13
2023-04-19T20:28:03.659Z,9.28
2023-04-19T20:30:31.523Z,9.30
2023-04-19T20:33:00.055Z,9.37
2023-04-19T20:35:28.388Z,9.27
2023-04-19T20:38:02.381Z,9.23
2023-04-19T20:40:32.128Z,9.12
2023-04-19T20:43:00.052Z,9.02
2023-04-19T20:45:28.338Z,8.98
2023-04-19T20:47:56.188Z,8.88
2023-04-19T20:50:24.219Z,8.84
2023-04-19T20:52:52.382Z,8.78
2023-04-19T20:55:21.694Z,8.73
2023-04-19T20:57:49.646Z,8.81
2023-04-19T21:00:18.559Z,8.79
2023-04-19T21:02:46.374Z,8.71
2023-04-19T21:05:14.259Z,8.78
2023-04-19T21:07:41.987Z,8.78
2023-04-19T21:10:11.496Z,8.78
2023-04-19T21:12:40.814Z,8.71
2023-04-19T21:15:09.203Z,8.65
2023-04-19T21:17:36.943Z,8.67
2023-04-19T21:20:11.994Z,8.68
2023-04-19T21:22:40.217Z,8.76
2023-04-19T21:25:09.290Z,8.67
2023-04-19T21:27:37.494Z,8.63
2023-04-19T21:30:08.787Z,8.45
2023-04-19T21:32:36.517Z,8.44
2023-04-19T21:35:04.434Z,8.46
2023-04-19T21:37:32.524Z,8.34
2023-04-19T21:40:00.646Z,8.37
2023-04-19T21:42:28.651Z,8.29
2023-04-19T21:44:56.552Z,8.43
2023-04-19T21:47:25.979Z,8.17
2023-04-19T21:49:54.156Z,8.09
2023-04-19T21:52:22.621Z,8.05
2023-04-19T21:54:50.288Z,8.02
2023-04-19T21:57:21.921Z,7.85
2023-04-19T21:59:49.826Z,7.81
2023-04-19T22:02:18.226Z,7.83
2023-04-19T22:04:47.325Z,7.82
2023-04-19T22:07:18.655Z,7.78
2023-04-19T22:09:46.502Z,7.64
2023-04-19T22:12:14.464Z,7.63
2023-04-19T22:14:42.066Z,7.66
2023-04-19T22:17:10.289Z,7.78
2023-04-19T22:19:39.376Z,7.77
2023-04-19T22:22:08.449Z,7.78
2023-04-19T22:24:43.947Z,7.67
2023-04-19T22:27:21.291Z,7.62
2023-04-19T22:29:49.245Z,7.63
2023-04-19T22:32:17.085Z,7.66
2023-04-19T22:34:45.021Z,7.66
2023-04-19T22:37:14.324Z,7.53
2023-04-19T22:39:42.039Z,7.48
2023-04-19T22:42:10.086Z,7.49
2023-04-19T22:44:38.045Z,7.37
2023-04-19T22:47:05.930Z,7.38
2023-04-19T22:49:33.924Z,7.31
2023-04-19T22:52:01.747Z,7.34
2023-04-19T22:54:31.164Z,7.26
2023-04-19T22:56:59.005Z,7.28
2023-04-19T22:59:26.921Z,7.25
2023-04-19T23:01:54.961Z,7.20
2023-04-19T23:04:24.071Z,7.20
2023-04-19T23:06:52.468Z,7.17
2023-04-19T23:09:20.170Z,7.09
2023-04-19T23:11:49.591Z,7.08
2023-04-19T23:14:18.342Z,7.12
2023-04-19T23:16:46.300Z,7.09
2023-04-19T23:19:15.676Z,7.02
2023-04-19T23:21:43.528Z,7.09
2023-04-19T23:24:11.562Z,7.01
2023-04-19T23:26:39.363Z,7.03
2023-04-19T23:29:08.632Z,6.91
2023-04-19T23:31:36.883Z,6.84
2023-04-19T23:34:04.821Z,6.84
2023-04-19T23:36:32.585Z,6.77
2023-04-19T23:39:00.578Z,6.74
2023-04-19T23:41:28.346Z,6.71
2023-04-19T23:43:56.051Z,6.71
2023-04-19T23:46:25.439Z,6.63
2023-04-19T23:48:53.294Z,6.65
2023-04-19T23:51:21.096Z,6.63
2023-04-19T23:53:49.505Z,6.61
2023-04-19T23:56:17.120Z,6.59
2023-04-19T23:58:45.084Z,6.53
